createdAt,value
2019-05-05T00:01:14.672Z,5.00
2019-05-05T00:03:49.239Z,4.90
2019-05-05T00:06:18.523Z,5.00
2019-05-05T00:08:47.813Z,4.90
2019-05-05T00:11:24.988Z,5.00
2019-05-05T00:14:12.574Z,4.80
2019-05-05T00:16:44.521Z,4.90
2019-05-05T00:19:19.127Z,4.80
2019-05-05T00:21:44.932Z,4.70
2019-05-05T00:24:15.166Z,4.70
2019-05-05T00:26:46.082Z,4.70
2019-05-05T00:29:15.503Z,4.50
2019-05-05T00:31:45.378Z,4.70
2019-05-05T00:34:15.480Z,4.60
2019-05-05T00:36:44.925Z,4.60
2019-05-05T00:39:15.076Z,4.70
2019-05-05T00:41:44.961Z,4.60
2019-05-05T00:44:15.368Z,4.60
2019-05-05T00:46:49.746Z,4.50
2019-05-05T00:49:19.038Z,4.50
2019-05-05T00:51:48.331Z,4.50
2019-05-05T00:54:17.659Z,4.50
2019-05-05T00:56:46.955Z,4.50
2019-05-05T00:59:17.883Z,4.30
2019-05-05T01:01:58.448Z,4.30
2019-05-05T01:04:29.452Z,4.40
2019-05-05T01:06:58.736Z,4.30
2019-05-05T01:09:29.956Z,4.30
2019-05-05T01:12:00.216Z,4.20
2019-05-05T01:14:29.489Z,4.20
2019-05-05T01:16:58.833Z,4.20
2019-05-05T01:19:28.479Z,4.30
2019-05-05T01:21:57.751Z,4.30
2019-05-05T01:24:27.106Z,4.10
2019-05-05T01:26:56.533Z,4.00
2019-05-05T01:29:25.812Z,3.90
2019-05-05T01:31:56.850Z,4.00
2019-05-05T01:34:34.848Z,4.10
2019-05-05T01:37:06.232Z,4.20
2019-05-05T01:39:39.712Z,4.20
2019-05-05T01:42:14.374Z,4.20
2019-05-05T01:44:44.762Z,4.10
2019-05-05T01:47:14.909Z,4.00
2019-05-05T01:49:45.276Z,4.10
2019-05-05T01:52:15.155Z,4.10
2019-05-05T01:54:44.798Z,4.20
2019-05-05T01:57:15.031Z,4.30
2019-05-05T01:59:45.028Z,4.30
2019-05-05T02:02:14.751Z,4.30
2019-05-05T02:04:44.871Z,4.30
2019-05-05T02:07:14.864Z,4.40
2019-05-05T02:09:44.891Z,4.20
2019-05-05T02:12:15.841Z,4.30
2019-05-05T02:14:45.808Z,4.10
2019-05-05T02:17:15.091Z,4.10
2019-05-05T02:19:44.651Z,4.00
2019-05-05T02:22:14.705Z,4.00
2019-05-05T02:24:44.692Z,4.00
2019-05-05T02:27:14.797Z,4.00
2019-05-05T02:29:46.139Z,4.00
2019-05-05T02:32:19.763Z,3.90
2019-05-05T02:34:56.294Z,3.90
2019-05-05T02:37:25.604Z,3.90
2019-05-05T02:40:02.028Z,3.80
2019-05-05T02:42:27.953Z,3.70
2019-05-05T02:45:05.044Z,3.70
2019-05-05T02:47:48.266Z,3.60
2019-05-05T02:50:18.534Z,3.60
2019-05-05T02:52:49.315Z,3.60
2019-05-05T02:55:20.363Z,3.70
2019-05-05T02:57:50.605Z,3.70
2019-05-05T03:00:24.337Z,3.70
2019-05-05T03:02:56.671Z,3.70
2019-05-05T03:05:26.762Z,3.50
2019-05-05T03:07:58.897Z,3.50
2019-05-05T03:10:30.640Z,3.50
2019-05-05T03:13:02.039Z,3.50
2019-05-05T03:15:58.124Z,3.50
2019-05-05T03:18:27.686Z,3.50
2019-05-05T03:21:04.559Z,3.50
2019-05-05T03:23:28.345Z,3.60
2019-05-05T03:25:57.629Z,3.50
2019-05-05T03:28:28.558Z,3.40
2019-05-05T03:30:58.025Z,3.40
2019-05-05T03:33:27.778Z,3.10
2019-05-05T03:35:57.902Z,3.10
2019-05-05T03:38:27.228Z,3.10
2019-05-05T03:40:58.694Z,3.20
2019-05-05T03:43:46.691Z,3.20
2019-05-05T03:46:16.123Z,3.20
2019-05-05T03:48:45.433Z,3.30
2019-05-05T03:51:18.767Z,3.40
2019-05-05T03:53:46.402Z,3.40
2019-05-05T03:56:15.752Z,3.40
2019-05-05T03:58:45.533Z,3.40
2019-05-05T04:01:38.170Z,3.50
2019-05-05T04:04:21.389Z,3.50
2019-05-05T04:06:54.045Z,3.50
2019-05-05T04:09:24.383Z,3.70
2019-05-05T04:11:54.698Z,3.80
2019-05-05T04:14:25.190Z,3.70
2019-05-05T04:17:05.279Z,3.80
2019-05-05T04:19:36.216Z,3.60
2019-05-05T04:22:05.570Z,3.70
2019-05-05T04:24:34.902Z,3.60
2019-05-05T04:27:04.441Z,3.80
2019-05-05T04:29:34.622Z,3.80
2019-05-05T04:32:04.684Z,3.80
2019-05-05T04:34:34.853Z,3.80
2019-05-05T04:37:04.382Z,3.70
2019-05-05T04:39:34.447Z,3.80
2019-05-05T04:42:04.780Z,3.80
2019-05-05T04:44:34.852Z,3.90
2019-05-05T04:47:08.600Z,3.90
2019-05-05T04:49:48.502Z,3.90
2019-05-05T04:52:19.481Z,3.80
2019-05-05T04:54:53.156Z,3.90
2019-05-05T04:57:24.007Z,3.70
2019-05-05T04:59:54.148Z,3.90
2019-05-05T05:02:34.271Z,4.00
2019-05-05T05:05:17.613Z,4.00
2019-05-05T05:07:46.909Z,4.00
2019-05-05T05:10:16.189Z,4.10
2019-05-05T05:12:45.514Z,4.10
2019-05-05T05:15:15.331Z,4.10
2019-05-05T05:17:46.246Z,4.10
2019-05-05T05:20:15.907Z,4.00
2019-05-05T05:22:45.236Z,4.00
2019-05-05T05:25:15.272Z,4.10
2019-05-05T05:27:44.619Z,4.10
2019-05-05T05:30:14.116Z,4.20
2019-05-05T05:32:44.535Z,4.30
2019-05-05T05:35:14.363Z,4.30
2019-05-05T05:37:44.743Z,4.30
2019-05-05T05:40:16.406Z,4.40
2019-05-05T05:42:46.342Z,4.30
2019-05-05T05:45:23.785Z,4.30
2019-05-05T05:47:54.972Z,4.30
2019-05-05T05:50:25.911Z,4.30
2019-05-05T05:52:55.221Z,4.50
2019-05-05T05:55:24.561Z,4.60
2019-05-05T05:57:54.286Z,4.60
2019-05-05T06:00:24.049Z,4.60
2019-05-05T06:02:54.593Z,4.70
2019-05-05T06:05:24.232Z,4.90
2019-05-05T06:07:54.424Z,4.90
2019-05-05T06:10:27.343Z,5.10
2019-05-05T06:12:55.631Z,5.10
2019-05-05T06:15:24.952Z,5.20
2019-05-05T06:17:54.254Z,5.30
2019-05-05T06:20:23.970Z,5.40
2019-05-05T06:22:53.779Z,5.50
2019-05-05T06:25:26.715Z,5.50
2019-05-05T06:27:54.399Z,5.60
2019-05-05T06:30:24.347Z,5.70
2019-05-05T06:32:54.521Z,5.70
2019-05-05T06:35:24.543Z,5.70
2019-05-05T06:37:54.766Z,5.70
2019-05-05T06:40:29.311Z,5.80
2019-05-05T06:43:00.266Z,5.80
2019-05-05T06:45:34.659Z,5.90
2019-05-05T06:48:04.361Z,5.90
2019-05-05T06:50:34.485Z,6.10
2019-05-05T06:53:04.387Z,6.20
2019-05-05T06:55:34.170Z,6.40
2019-05-05T06:58:04.602Z,6.50
2019-05-05T07:00:34.663Z,6.60
2019-05-05T07:03:07.671Z,6.60
2019-05-05T07:05:35.247Z,6.70
2019-05-05T07:08:04.657Z,6.70
2019-05-05T07:10:34.047Z,6.80
2019-05-05T07:13:04.969Z,6.90
2019-05-05T07:15:34.427Z,6.90
2019-05-05T07:18:03.868Z,6.90
2019-05-05T07:20:34.661Z,7.00
2019-05-05T07:23:05.451Z,7.00
2019-05-05T07:25:42.703Z,7.10
2019-05-05T07:28:06.215Z,7.20
2019-05-05T07:30:35.556Z,7.20
2019-05-05T07:33:04.861Z,7.40
2019-05-05T07:35:35.798Z,7.50
2019-05-05T07:38:05.148Z,7.50
2019-05-05T07:40:34.677Z,7.70
2019-05-05T07:43:04.581Z,7.80
2019-05-05T07:45:34.384Z,7.80
2019-05-05T07:48:04.846Z,7.90
2019-05-05T07:50:35.919Z,8.00
2019-05-05T07:53:14.558Z,8.10
2019-05-05T07:55:36.477Z,8.20
2019-05-05T07:58:05.788Z,8.20
2019-05-05T08:00:35.365Z,8.10
2019-05-05T08:03:04.690Z,8.10
2019-05-05T08:05:34.051Z,8.10
2019-05-05T08:08:04.641Z,8.00
2019-05-05T08:10:34.462Z,7.90
2019-05-05T08:13:04.686Z,8.00
2019-05-05T08:15:34.472Z,8.00
2019-05-05T08:18:20.065Z,7.90
2019-05-05T08:20:51.083Z,8.00
2019-05-05T08:23:30.328Z,8.10
2019-05-05T08:25:54.980Z,8.30
2019-05-05T08:28:34.825Z,8.20
2019-05-05T08:31:05.761Z,8.40
2019-05-05T08:33:35.158Z,8.40
2019-05-05T08:36:04.816Z,8.30
2019-05-05T08:38:34.738Z,8.40
2019-05-05T08:41:04.669Z,8.50
2019-05-05T08:43:34.843Z,8.40
2019-05-05T08:46:05.011Z,8.30
2019-05-05T08:48:34.416Z,8.30
2019-05-05T08:51:04.923Z,8.40
2019-05-05T08:53:42.463Z,8.60
2019-05-05T08:56:05.569Z,8.60
2019-05-05T08:58:34.936Z,8.80
2019-05-05T09:01:04.559Z,8.80
2019-05-05T09:03:33.847Z,8.80
2019-05-05T09:06:04.711Z,8.90
2019-05-05T09:08:34.833Z,8.90
2019-05-05T09:11:04.870Z,9.10
2019-05-05T09:13:34.740Z,9.30
2019-05-05T09:16:04.059Z,9.40
2019-05-05T09:18:33.982Z,9.30
2019-05-05T09:21:04.367Z,9.40
2019-05-05T09:23:35.465Z,9.20
2019-05-05T09:26:06.755Z,9.50
2019-05-05T09:28:53.900Z,9.80
2019-05-05T09:31:24.007Z,9.90
2019-05-05T09:33:56.368Z,9.80
2019-05-05T09:36:25.801Z,9.70
2019-05-05T09:38:55.154Z,9.80
2019-05-05T09:41:24.781Z,9.70
2019-05-05T09:43:54.133Z,9.70
2019-05-05T09:46:23.561Z,9.70
2019-05-05T09:48:54.133Z,9.80
2019-05-05T09:51:24.226Z,9.70
2019-05-05T09:53:54.277Z,9.70
2019-05-05T09:56:23.853Z,9.60
2019-05-05T09:58:54.468Z,9.20
2019-05-05T10:01:24.617Z,8.80
2019-05-05T10:03:57.293Z,8.80
2019-05-05T10:06:26.635Z,8.50
2019-05-05T10:08:57.842Z,8.50
2019-05-05T10:11:27.127Z,8.50
2019-05-05T10:13:56.473Z,8.60
2019-05-05T10:16:25.759Z,8.60
2019-05-05T10:18:55.343Z,8.90
2019-05-05T10:21:24.760Z,9.00
2019-05-05T10:23:55.915Z,9.00
2019-05-05T10:26:25.217Z,9.20
2019-05-05T10:28:54.551Z,9.30
2019-05-05T10:31:24.206Z,9.40
2019-05-05T10:33:55.182Z,9.70
2019-05-05T10:36:26.452Z,9.80
2019-05-05T10:39:04.435Z,9.90
2019-05-05T10:41:34.399Z,9.90
2019-05-05T10:44:04.067Z,10.40
2019-05-05T10:46:34.137Z,10.10
2019-05-05T10:49:03.510Z,10.10
2019-05-05T10:51:34.637Z,9.80
2019-05-05T10:54:04.143Z,9.40
2019-05-05T10:56:34.557Z,9.30
2019-05-05T10:59:04.412Z,9.40
2019-05-05T11:01:33.703Z,9.60
2019-05-05T11:04:03.043Z,9.70
2019-05-05T11:06:32.420Z,10.10
2019-05-05T11:09:04.341Z,10.00
2019-05-05T11:11:34.386Z,10.00
2019-05-05T11:14:04.554Z,10.30
2019-05-05T11:16:33.850Z,10.40
2019-05-05T11:19:04.333Z,10.40
2019-05-05T11:21:34.219Z,10.40
2019-05-05T11:24:04.066Z,10.40
2019-05-05T11:26:33.993Z,10.50
2019-05-05T11:29:04.246Z,10.60
2019-05-05T11:31:34.426Z,10.80
2019-05-05T11:34:05.488Z,10.90
2019-05-05T11:36:36.717Z,10.70
2019-05-05T11:39:07.403Z,10.70
2019-05-05T11:41:36.747Z,10.40
2019-05-05T11:44:06.050Z,10.40
2019-05-05T11:46:35.348Z,10.60
2019-05-05T11:49:05.120Z,11.10
2019-05-05T11:51:34.370Z,11.40
2019-05-05T11:54:04.772Z,11.30
2019-05-05T11:56:34.293Z,11.40
2019-05-05T11:59:04.041Z,11.40
2019-05-05T12:01:33.470Z,11.30
2019-05-05T12:04:04.538Z,11.50
2019-05-05T12:06:34.106Z,11.30
2019-05-05T12:09:06.136Z,11.20
2019-05-05T12:11:35.477Z,11.30
2019-05-05T12:14:06.424Z,11.20
2019-05-05T12:16:35.729Z,11.10
2019-05-05T12:19:08.081Z,11.20
2019-05-05T12:21:37.378Z,11.10
2019-05-05T12:24:08.388Z,11.20
2019-05-05T12:26:45.193Z,11.30
2019-05-05T12:29:14.537Z,11.70
2019-05-05T12:31:45.468Z,11.70
2019-05-05T12:34:14.829Z,11.60
2019-05-05T12:36:44.580Z,12.10
2019-05-05T12:39:14.379Z,12.40
2019-05-05T12:41:43.900Z,12.20
2019-05-05T12:44:15.455Z,12.20
2019-05-05T12:46:46.414Z,12.30
2019-05-05T12:49:15.767Z,12.40
2019-05-05T12:51:47.974Z,12.90
2019-05-05T12:54:17.584Z,13.60
2019-05-05T12:56:46.929Z,13.20
2019-05-05T12:59:17.858Z,12.60
2019-05-05T13:01:47.167Z,12.50
2019-05-05T13:04:16.492Z,12.30
2019-05-05T13:06:45.783Z,12.10
2019-05-05T13:09:16.859Z,11.90
2019-05-05T13:11:46.228Z,11.90
2019-05-05T13:14:15.767Z,11.90
2019-05-05T13:16:52.378Z,11.90
2019-05-05T13:19:24.352Z,12.40
2019-05-05T13:22:11.859Z,12.60
2019-05-05T13:25:00.816Z,12.40
2019-05-05T13:27:34.082Z,12.00
2019-05-05T13:30:04.341Z,11.80
2019-05-05T13:32:34.021Z,11.80
2019-05-05T13:35:04.239Z,11.60
2019-05-05T13:37:33.871Z,11.20
2019-05-05T13:40:05.126Z,11.10
2019-05-05T13:42:34.413Z,11.20
2019-05-05T13:45:14.490Z,11.00
2019-05-05T13:47:43.905Z,10.80
2019-05-05T13:50:15.556Z,10.80
2019-05-05T13:52:44.910Z,10.70
2019-05-05T13:55:15.127Z,10.60
2019-05-05T13:57:44.539Z,10.30
2019-05-05T14:00:17.080Z,10.00
2019-05-05T14:02:46.440Z,10.10
2019-05-05T14:05:15.880Z,10.20
2019-05-05T14:07:45.516Z,10.30
2019-05-05T14:10:15.049Z,10.40
2019-05-05T14:12:44.425Z,10.60
2019-05-05T14:15:16.946Z,11.10
2019-05-05T14:17:46.535Z,11.80
2019-05-05T14:20:16.171Z,12.60
2019-05-05T14:22:45.583Z,12.50
2019-05-05T14:25:24.268Z,13.20
2019-05-05T14:27:54.226Z,13.90
2019-05-05T14:30:26.450Z,14.10
2019-05-05T14:32:56.227Z,12.90
2019-05-05T14:35:30.168Z,13.00
2019-05-05T14:38:04.106Z,12.40
2019-05-05T14:40:33.928Z,12.40
2019-05-05T14:43:04.522Z,12.30
2019-05-05T14:45:34.406Z,12.20
2019-05-05T14:48:04.111Z,12.30
2019-05-05T14:50:34.730Z,12.30
2019-05-05T14:53:04.158Z,12.30
2019-05-05T14:55:33.670Z,12.00
2019-05-05T14:58:03.940Z,11.90
2019-05-05T15:00:33.848Z,11.90
2019-05-05T15:03:03.667Z,12.00
2019-05-05T15:05:38.132Z,12.10
2019-05-05T15:08:20.787Z,11.60
2019-05-05T15:10:54.764Z,11.20
2019-05-05T15:13:24.975Z,10.80
2019-05-05T15:15:54.583Z,10.70
2019-05-05T15:18:24.317Z,10.90
2019-05-05T15:20:54.719Z,10.80
2019-05-05T15:23:24.253Z,10.70
2019-05-05T15:25:54.097Z,10.50
2019-05-05T15:28:24.496Z,10.50
2019-05-05T15:30:54.634Z,10.40
2019-05-05T15:33:24.590Z,10.40
2019-05-05T15:35:54.926Z,10.40
2019-05-05T15:38:24.503Z,10.50
2019-05-05T15:40:54.842Z,10.40
2019-05-05T15:43:24.548Z,10.40
2019-05-05T15:45:54.569Z,10.40
2019-05-05T15:48:23.922Z,10.40
2019-05-05T15:50:54.607Z,10.40
2019-05-05T15:53:24.177Z,10.50
2019-05-05T15:55:54.122Z,10.60
2019-05-05T15:58:23.667Z,10.70
2019-05-05T16:00:53.839Z,10.40
2019-05-05T16:03:23.868Z,10.40
2019-05-05T16:05:54.305Z,10.40
2019-05-05T16:08:23.939Z,10.50
2019-05-05T16:10:54.605Z,10.50
2019-05-05T16:13:24.464Z,10.50
2019-05-05T16:15:58.591Z,10.50
2019-05-05T16:18:35.282Z,10.50
2019-05-05T16:21:09.550Z,10.60
2019-05-05T16:23:49.862Z,10.80
2019-05-05T16:26:19.165Z,10.80
2019-05-05T16:28:48.474Z,10.80
2019-05-05T16:31:17.814Z,10.80
2019-05-05T16:33:48.687Z,10.70
2019-05-05T16:36:17.996Z,10.90
2019-05-05T16:38:47.360Z,10.80
2019-05-05T16:41:16.658Z,11.20
2019-05-05T16:43:45.954Z,11.30
2019-05-05T16:46:17.111Z,11.70
2019-05-05T16:48:46.492Z,12.30
2019-05-05T16:51:17.436Z,12.20
2019-05-05T16:53:47.142Z,12.30
2019-05-05T16:56:17.314Z,12.30
2019-05-05T16:58:46.890Z,12.00
2019-05-05T17:01:17.511Z,12.00
2019-05-05T17:03:46.799Z,11.80
2019-05-05T17:06:16.134Z,11.90
2019-05-05T17:08:45.475Z,12.10
2019-05-05T17:11:15.222Z,12.60
2019-05-05T17:13:49.102Z,13.00
2019-05-05T17:16:36.075Z,13.30
2019-05-05T17:19:13.980Z,13.00
2019-05-05T17:21:54.082Z,12.60
2019-05-05T17:24:23.953Z,12.20
2019-05-05T17:26:54.843Z,11.80
2019-05-05T17:29:24.568Z,11.40
2019-05-05T17:31:54.139Z,11.20
2019-05-05T17:34:24.702Z,11.20
2019-05-05T17:36:54.608Z,11.10
2019-05-05T17:39:25.554Z,10.90
2019-05-05T17:41:56.792Z,10.80
2019-05-05T17:44:28.027Z,10.80
2019-05-05T17:47:15.551Z,10.70
2019-05-05T17:49:46.540Z,10.70
2019-05-05T17:52:17.748Z,10.70
2019-05-05T17:54:48.693Z,10.60
2019-05-05T17:57:18.394Z,10.60
2019-05-05T17:59:47.704Z,10.70
2019-05-05T18:02:19.989Z,10.70
2019-05-05T18:04:50.996Z,10.50
2019-05-05T18:07:23.815Z,10.40
2019-05-05T18:09:57.665Z,10.40
2019-05-05T18:12:37.189Z,10.50
2019-05-05T18:15:08.480Z,10.40
2019-05-05T18:17:37.782Z,10.30
2019-05-05T18:20:07.639Z,10.30
2019-05-05T18:22:37.023Z,10.30
2019-05-05T18:25:07.995Z,10.20
2019-05-05T18:27:37.297Z,10.10
2019-05-05T18:30:07.589Z,10.00
2019-05-05T18:32:37.159Z,10.10
2019-05-05T18:35:07.037Z,10.00
2019-05-05T18:37:36.393Z,9.90
2019-05-05T18:40:07.225Z,9.90
2019-05-05T18:42:36.537Z,9.90
2019-05-05T18:45:13.794Z,9.80
2019-05-05T18:47:43.427Z,9.80
2019-05-05T18:50:13.634Z,9.80
2019-05-05T18:52:45.140Z,9.60
2019-05-05T18:55:14.355Z,9.50
2019-05-05T18:57:43.637Z,9.40
2019-05-05T19:00:16.729Z,9.30
2019-05-05T19:02:50.778Z,9.30
2019-05-05T19:05:23.581Z,9.10
2019-05-05T19:07:57.295Z,9.00
2019-05-05T19:10:28.316Z,8.90
2019-05-05T19:12:57.616Z,8.90
2019-05-05T19:15:27.024Z,8.80
2019-05-05T19:17:56.321Z,8.80
2019-05-05T19:20:27.762Z,8.70
2019-05-05T19:23:02.899Z,8.70
2019-05-05T19:25:32.118Z,8.60
2019-05-05T19:28:01.409Z,8.60
2019-05-05T19:30:31.136Z,8.60
2019-05-05T19:33:00.705Z,8.50
2019-05-05T19:35:40.683Z,8.50
2019-05-05T19:38:01.133Z,8.50
2019-05-05T19:40:30.421Z,8.50
2019-05-05T19:42:59.709Z,8.40
2019-05-05T19:45:29.039Z,8.40
2019-05-05T19:48:01.240Z,8.40
2019-05-05T19:50:33.754Z,8.40
2019-05-05T19:53:04.451Z,8.30
2019-05-05T19:55:36.379Z,8.30
2019-05-05T19:58:05.934Z,8.30
2019-05-05T20:00:38.462Z,8.10
2019-05-05T20:03:06.581Z,8.10
2019-05-05T20:05:35.825Z,8.10
2019-05-05T20:08:05.176Z,8.00
2019-05-05T20:10:34.750Z,8.00
2019-05-05T20:13:05.007Z,7.80
2019-05-05T20:15:39.087Z,7.90
2019-05-05T20:18:08.379Z,7.90
2019-05-05T20:20:37.992Z,7.80
2019-05-05T20:23:07.324Z,7.80
2019-05-05T20:25:36.624Z,7.80
2019-05-05T20:28:05.928Z,7.70
2019-05-05T20:30:35.250Z,7.70
2019-05-05T20:33:13.754Z,7.70
2019-05-05T20:35:56.883Z,7.60
2019-05-05T20:38:30.509Z,7.70
2019-05-05T20:41:10.300Z,7.70
2019-05-05T20:43:39.656Z,7.60
2019-05-05T20:46:09.016Z,7.60
2019-05-05T20:48:41.019Z,7.50
2019-05-05T20:51:09.473Z,7.40
2019-05-05T20:53:39.060Z,7.50
2019-05-05T20:56:08.374Z,7.50
2019-05-05T20:58:37.663Z,7.40
2019-05-05T21:01:06.974Z,7.40
2019-05-05T21:03:36.309Z,7.30
2019-05-05T21:06:05.596Z,7.30
2019-05-05T21:08:35.032Z,7.20
2019-05-05T21:11:04.677Z,7.30
2019-05-05T21:13:34.415Z,7.30
2019-05-05T21:16:04.081Z,7.30
2019-05-05T21:18:34.686Z,7.30
2019-05-05T21:21:05.827Z,7.20
2019-05-05T21:23:36.777Z,7.20
2019-05-05T21:26:10.403Z,7.10
2019-05-05T21:28:39.696Z,7.10
2019-05-05T21:31:09.282Z,7.10
2019-05-05T21:33:38.616Z,7.10
2019-05-05T21:36:07.981Z,7.10
2019-05-05T21:38:37.607Z,7.10
2019-05-05T21:41:07.199Z,7.00
2019-05-05T21:43:36.506Z,7.00
2019-05-05T21:46:05.776Z,7.00
2019-05-05T21:48:35.115Z,7.00
2019-05-05T21:51:06.044Z,7.00
2019-05-05T21:53:36.975Z,7.10
2019-05-05T21:56:24.781Z,6.90
2019-05-05T21:58:55.953Z,6.60
2019-05-05T22:01:27.727Z,6.50
2019-05-05T22:03:56.953Z,6.50
2019-05-05T22:06:26.245Z,6.40
2019-05-05T22:08:55.537Z,6.50
2019-05-05T22:11:24.887Z,6.60
2019-05-05T22:13:54.261Z,6.60
2019-05-05T22:16:23.927Z,6.50
2019-05-05T22:18:54.215Z,6.50
2019-05-05T22:21:28.047Z,6.50
2019-05-05T22:24:05.029Z,6.50
2019-05-05T22:26:34.325Z,6.40
2019-05-05T22:29:04.828Z,6.40
2019-05-05T22:31:34.721Z,6.40
2019-05-05T22:34:05.383Z,6.40
2019-05-05T22:36:35.843Z,6.40
2019-05-05T22:39:08.788Z,6.40
2019-05-05T22:41:38.082Z,6.40
2019-05-05T22:44:07.439Z,6.50
2019-05-05T22:46:37.056Z,6.40
2019-05-05T22:49:09.028Z,6.50
2019-05-05T22:51:38.319Z,6.50
2019-05-05T22:54:08.724Z,6.40
2019-05-05T22:56:38.732Z,6.40
2019-05-05T22:59:09.695Z,6.40
2019-05-05T23:01:39.028Z,6.40
2019-05-05T23:04:28.138Z,6.20
2019-05-05T23:06:59.123Z,6.30
2019-05-05T23:09:28.701Z,6.30
2019-05-05T23:11:58.065Z,6.20
2019-05-05T23:14:30.908Z,6.10
2019-05-05T23:17:12.105Z,6.00
2019-05-05T23:19:55.264Z,5.90
2019-05-05T23:22:44.166Z,5.90
2019-05-05T23:25:18.424Z,5.80
2019-05-05T23:27:49.359Z,5.80
2019-05-05T23:30:32.275Z,5.80
2019-05-05T23:32:55.155Z,5.80
2019-05-05T23:35:24.506Z,5.90
2019-05-05T23:37:55.254Z,5.70
2019-05-05T23:40:27.474Z,5.80
2019-05-05T23:42:56.948Z,5.70
2019-05-05T23:45:26.310Z,5.70
2019-05-05T23:47:55.615Z,5.70
2019-05-05T23:50:25.380Z,5.60
2019-05-05T23:52:54.912Z,5.60
2019-05-05T23:55:24.413Z,5.60
2019-05-05T23:57:54.608Z,5.50
